Time;durP1;ratioP1;P1;durP2;ratioP2;P2;SDS_P1;SDS_P2;PMS_P1;PMS_P2;Temp;Humidity;BMP_temperature;BMP_pressure;BME280_temperature;BME280_humidity;BME280_pressure;Samples;Min_cycle;Max_cycle;Signal;HPM_P1;HPM_P2
2022/08/16 00:00:33;;;;;;;5.40;3.30;;;;;;;;;;5063286;28;20553;-78
2022/08/16 00:02:59;;;;;;;6.85;3.33;;;;;;;;;;5069441;28;20035;-78
2022/08/16 00:05:26;;;;;;;6.28;3.22;;;;;;;;;;5063199;28;20676;-77
2022/08/16 00:07:52;;;;;;;5.90;3.60;;;;;;;;;;5068857;28;20040;-77
2022/08/16 00:10:18;;;;;;;8.18;3.70;;;;;;;;;;5066261;28;20044;-77
2022/08/16 00:12:44;;;;;;;6.93;3.28;;;;;;;;;;5067155;28;20036;-77
2022/08/16 00:15:12;;;;;;;8.10;3.97;;;;;;;;;;5069263;28;20041;-78
2022/08/16 00:17:38;;;;;;;6.32;3.40;;;;;;;;;;5069968;28;20032;-77
2022/08/16 00:20:08;;;;;;;6.88;2.83;;;;;;;;;;5067821;28;20156;-77
2022/08/16 00:22:35;;;;;;;9.20;3.75;;;;;;;;;;5066377;28;20369;-77
2022/08/16 00:25:01;;;;;;;10.77;4.43;;;;;;;;;;5073605;28;20520;-77
2022/08/16 00:27:27;;;;;;;9.48;3.58;;;;;;;;;;5064754;28;20089;-78
2022/08/16 00:29:53;;;;;;;7.20;3.60;;;;;;;;;;5059914;28;20040;-77
2022/08/16 00:32:20;;;;;;;7.53;3.63;;;;;;;;;;5071068;28;20070;-77
2022/08/16 00:34:46;;;;;;;6.95;3.60;;;;;;;;;;5067612;28;20806;-78
2022/08/16 00:37:15;;;;;;;5.72;3.05;;;;;;;;;;5063507;28;20067;-77
2022/08/16 00:39:41;;;;;;;5.72;3.60;;;;;;;;;;5063233;28;20060;-77
2022/08/16 00:42:07;;;;;;;6.47;3.80;;;;;;;;;;5060761;28;20020;-77
2022/08/16 00:44:34;;;;;;;6.22;4.13;;;;;;;;;;5060297;28;20028;-78
2022/08/16 00:47:04;;;;;;;6.07;3.55;;;;;;;;;;5065863;28;20489;-77
2022/08/16 00:49:30;;;;;;;6.82;3.70;;;;;;;;;;5068617;28;20075;-78
2022/08/16 00:51:56;;;;;;;7.45;3.90;;;;;;;;;;5063674;28;20135;-78
2022/08/16 00:54:23;;;;;;;7.80;3.80;;;;;;;;;;5069490;28;20051;-77
2022/08/16 00:56:50;;;;;;;8.48;3.67;;;;;;;;;;5060771;28;20070;-77
2022/08/16 00:59:18;;;;;;;7.90;3.53;;;;;;;;;;5061927;28;20044;-77
2022/08/16 01:01:44;;;;;;;6.93;3.75;;;;;;;;;;5063320;28;20020;-78
2022/08/16 01:04:11;;;;;;;7.90;3.92;;;;;;;;;;5068736;28;20052;-77
2022/08/16 01:06:37;;;;;;;7.28;3.78;;;;;;;;;;5056065;28;20079;-77
2022/08/16 01:09:05;;;;;;;6.43;3.45;;;;;;;;;;5071081;28;20032;-77
2022/08/16 01:11:31;;;;;;;8.30;3.75;;;;;;;;;;5061670;28;20045;-77
2022/08/16 01:14:02;;;;;;;5.63;3.08;;;;;;;;;;5063004;28;20505;-78
2022/08/16 01:16:28;;;;;;;6.65;3.35;;;;;;;;;;5065886;28;20041;-78
2022/08/16 01:19:00;;;;;;;8.48;3.55;;;;;;;;;;5066803;28;20044;-77
2022/08/16 01:21:26;;;;;;;;;;;;;;;;;;5055808;28;20065;-78
2022/08/16 01:23:59;;;;;;;7.30;3.20;;;;;;;;;;5065639;28;19951;-77
2022/08/16 01:26:29;;;;;;;5.45;3.50;;;;;;;;;;5071421;28;20067;-77
2022/08/16 01:28:56;;;;;;;7.18;3.75;;;;;;;;;;5067640;28;20469;-77
2022/08/16 01:31:22;;;;;;;5.30;3.38;;;;;;;;;;5067946;28;20024;-77
2022/08/16 01:33:49;;;;;;;9.18;4.15;;;;;;;;;;5063810;28;20033;-77
2022/08/16 01:36:15;;;;;;;7.43;4.05;;;;;;;;;;5071724;28;20111;-77
2022/08/16 01:38:43;;;;;;;6.32;3.50;;;;;;;;;;5058390;28;20036;-78
2022/08/16 01:41:12;;;;;;;7.68;3.92;;;;;;;;;;5059838;28;20029;-78
2022/08/16 01:43:39;;;;;;;8.25;4.43;;;;;;;;;;5057797;28;20596;-77
2022/08/16 01:46:07;;;;;;;6.03;3.95;;;;;;;;;;5056799;28;20462;-77
2022/08/16 01:48:33;;;;;;;7.80;3.70;;;;;;;;;;5060643;28;20049;-77
2022/08/16 01:51:01;;;;;;;6.68;3.78;;;;;;;;;;5062607;28;20039;-77
2022/08/16 01:53:28;;;;;;;5.75;3.97;;;;;;;;;;5062651;28;20703;-77
2022/08/16 01:55:54;;;;;;;8.05;3.72;;;;;;;;;;5064280;28;20554;-77
2022/08/16 01:58:20;;;;;;;6.07;3.67;;;;;;;;;;5061508;28;20086;-77
2022/08/16 02:00:46;;;;;;;6.78;3.72;;;;;;;;;;5057339;28;20029;-77
2022/08/16 02:03:13;;;;;;;5.30;3.30;;;;;;;;;;5057878;28;20028;-77
2022/08/16 02:05:39;;;;;;;7.10;3.90;;;;;;;;;;5058596;28;20029;-77
2022/08/16 02:08:06;;;;;;;7.40;3.58;;;;;;;;;;5061379;28;20037;-77
2022/08/16 02:10:32;;;;;;;6.90;3.95;;;;;;;;;;5062535;28;20085;-77
2022/08/16 02:12:58;;;;;;;6.13;3.35;;;;;;;;;;5060647;28;20104;-77
2022/08/16 02:15:26;;;;;;;6.55;3.78;;;;;;;;;;5059714;28;20047;-78
2022/08/16 02:17:53;;;;;;;6.63;3.33;;;;;;;;;;5065421;28;20056;-78
2022/08/16 02:20:19;;;;;;;6.10;3.80;;;;;;;;;;5056151;28;20547;-77
2022/08/16 02:22:45;;;;;;;7.22;3.55;;;;;;;;;;5056482;28;20021;-78
2022/08/16 02:25:13;;;;;;;6.38;3.78;;;;;;;;;;5053752;28;20041;-78
2022/08/16 02:27:40;;;;;;;4.97;3.22;;;;;;;;;;5058809;28;20059;-78
2022/08/16 02:30:07;;;;;;;8.63;3.63;;;;;;;;;;5056619;28;20074;-78
2022/08/16 02:32:33;;;;;;;12.70;3.70;;;;;;;;;;5057103;28;20028;-78
2022/08/16 02:35:00;;;;;;;7.22;3.50;;;;;;;;;;5060827;28;20040;-78
2022/08/16 02:37:26;;;;;;;8.27;3.72;;;;;;;;;;5054781;28;20021;-78
2022/08/16 02:39:52;;;;;;;5.88;3.33;;;;;;;;;;5058823;28;20037;-78
2022/08/16 02:42:18;;;;;;;6.10;3.42;;;;;;;;;;5057625;28;20033;-78
2022/08/16 02:44:44;;;;;;;5.63;3.45;;;;;;;;;;5055596;28;20035;-78
2022/08/16 02:47:10;;;;;;;6.07;3.75;;;;;;;;;;5060375;28;20025;-78
2022/08/16 02:49:37;;;;;;;6.25;3.50;;;;;;;;;;5055102;28;20051;-78
2022/08/16 02:52:03;;;;;;;7.10;3.30;;;;;;;;;;5064539;28;20024;-78
2022/08/16 02:54:29;;;;;;;10.65;4.43;;;;;;;;;;5067558;28;20086;-78
2022/08/16 02:56:55;;;;;;;7.45;3.22;;;;;;;;;;5040596;28;20074;-78
2022/08/16 02:59:22;;;;;;;5.55;3.60;;;;;;;;;;5069943;28;20063;-78
2022/08/16 03:01:48;;;;;;;8.00;3.55;;;;;;;;;;5068689;28;20020;-78
2022/08/16 03:04:14;;;;;;;6.43;3.53;;;;;;;;;;5069047;28;20758;-78
2022/08/16 03:06:40;;;;;;;6.82;3.28;;;;;;;;;;5062556;28;20025;-78
2022/08/16 03:09:06;;;;;;;8.45;3.28;;;;;;;;;;5070849;28;20112;-78
2022/08/16 03:11:33;;;;;;;7.07;3.22;;;;;;;;;;5059034;28;20116;-78
2022/08/16 03:13:59;;;;;;;5.38;3.30;;;;;;;;;;5070080;28;20040;-78
2022/08/16 03:16:25;;;;;;;5.88;3.28;;;;;;;;;;5066478;28;20021;-78
2022/08/16 03:18:52;;;;;;;7.68;3.15;;;;;;;;;;5070078;28;20036;-78
2022/08/16 03:21:18;;;;;;;5.10;3.38;;;;;;;;;;5069144;28;20832;-78
2022/08/16 03:23:44;;;;;;;7.50;3.65;;;;;;;;;;5064902;28;20044;-78
2022/08/16 03:26:10;;;;;;;6.50;3.63;;;;;;;;;;5066661;28;20055;-78
2022/08/16 03:28:36;;;;;;;6.28;3.50;;;;;;;;;;5067964;28;20350;-78
2022/08/16 03:31:02;;;;;;;7.70;4.28;;;;;;;;;;5064372;28;20029;-78
2022/08/16 03:33:29;;;;;;;5.80;3.22;;;;;;;;;;5065116;28;20044;-78
2022/08/16 03:35:58;;;;;;;5.78;3.17;;;;;;;;;;5068659;28;20059;-78
2022/08/16 03:38:24;;;;;;;5.50;3.58;;;;;;;;;;5067438;28;20024;-78
2022/08/16 03:40:51;;;;;;;5.22;3.03;;;;;;;;;;5064055;28;20090;-78
2022/08/16 03:43:17;;;;;;;8.23;4.03;;;;;;;;;;5068411;28;20529;-78
2022/08/16 03:45:43;;;;;;;7.93;3.63;;;;;;;;;;5076593;28;20112;-78
2022/08/16 03:48:09;;;;;;;7.28;3.65;;;;;;;;;;5065712;28;20029;-78
2022/08/16 03:50:35;;;;;;;7.82;3.42;;;;;;;;;;5070842;28;20408;-78
2022/08/16 03:53:01;;;;;;;6.93;3.70;;;;;;;;;;5057746;28;20032;-78
2022/08/16 03:55:27;;;;;;;5.30;3.47;;;;;;;;;;5059407;28;20040;-77
2022/08/16 03:57:54;;;;;;;7.45;3.78;;;;;;;;;;5074387;28;20115;-78
2022/08/16 04:00:22;;;;;;;6.00;3.80;;;;;;;;;;5071132;28;20043;-78
2022/08/16 04:02:48;;;;;;;6.18;3.00;;;;;;;;;;5065881;28;21001;-78
2022/08/16 04:05:15;;;;;;;7.32;3.60;;;;;;;;;;5063788;28;20032;-77
2022/08/16 04:07:41;;;;;;;11.73;4.28;;;;;;;;;;5069001;28;20040;-78
2022/08/16 04:10:09;;;;;;;6.70;3.85;;;;;;;;;;5070139;28;20748;-78
2022/08/16 04:12:35;;;;;;;6.13;3.90;;;;;;;;;;5070214;28;20062;-78
2022/08/16 04:15:02;;;;;;;6.10;3.38;;;;;;;;;;5061334;28;20044;-78
2022/08/16 04:17:28;;;;;;;7.00;3.60;;;;;;;;;;5063240;28;20123;-78
2022/08/16 04:19:55;;;;;;;6.07;3.10;;;;;;;;;;5069192;28;20056;-78
2022/08/16 04:22:21;;;;;;;7.15;3.47;;;;;;;;;;5067758;28;20029;-78
2022/08/16 04:24:47;;;;;;;9.75;3.70;;;;;;;;;;5059052;28;20045;-78
2022/08/16 04:27:13;;;;;;;5.75;3.40;;;;;;;;;;5069438;28;20028;-77
2022/08/16 04:29:40;;;;;;;6.97;3.53;;;;;;;;;;5067576;28;20056;-77
2022/08/16 04:32:06;;;;;;;5.03;3.20;;;;;;;;;;5062339;28;20071;-78
2022/08/16 04:34:33;;;;;;;5.75;3.50;;;;;;;;;;5065613;28;20036;-77
2022/08/16 04:36:59;;;;;;;6.35;4.18;;;;;;;;;;5070254;28;20187;-77
2022/08/16 04:39:26;;;;;;;8.18;3.65;;;;;;;;;;5067930;28;20416;-77
2022/08/16 04:41:52;;;;;;;7.72;4.55;;;;;;;;;;5069949;28;20024;-78
2022/08/16 04:44:18;;;;;;;6.72;4.10;;;;;;;;;;5063658;28;20035;-78
2022/08/16 04:46:44;;;;;;;9.60;3.78;;;;;;;;;;5060319;28;20036;-78
2022/08/16 04:49:10;;;;;;;9.32;4.25;;;;;;;;;;5067732;28;20036;-78
2022/08/16 04:51:37;;;;;;;8.73;3.85;;;;;;;;;;5072932;28;20024;-78
2022/08/16 04:54:03;;;;;;;6.60;3.55;;;;;;;;;;5063892;28;20116;-78
2022/08/16 04:56:29;;;;;;;7.38;3.58;;;;;;;;;;5069750;28;20481;-78
2022/08/16 04:58:56;;;;;;;6.57;3.83;;;;;;;;;;5068037;28;20060;-78
2022/08/16 05:01:22;;;;;;;8.60;3.20;;;;;;;;;;5061936;28;20094;-78
2022/08/16 05:03:48;;;;;;;6.22;3.13;;;;;;;;;;5053209;28;20592;-77
2022/08/16 05:06:14;;;;;;;8.18;3.38;;;;;;;;;;5065449;28;20050;-78
2022/08/16 05:08:40;;;;;;;8.48;3.80;;;;;;;;;;5069545;28;20037;-78
2022/08/16 05:11:07;;;;;;;6.35;3.30;;;;;;;;;;5064297;28;20039;-78
2022/08/16 05:13:34;;;;;;;6.80;3.45;;;;;;;;;;5069388;28;20473;-78
2022/08/16 05:16:00;;;;;;;7.75;3.20;;;;;;;;;;5060038;28;20036;-78
2022/08/16 05:18:26;;;;;;;7.25;3.47;;;;;;;;;;5061300;28;20067;-78
2022/08/16 05:20:52;;;;;;;6.47;3.38;;;;;;;;;;5061575;28;20041;-78
2022/08/16 05:23:18;;;;;;;8.80;3.47;;;;;;;;;;5069314;28;20032;-77
2022/08/16 05:25:44;;;;;;;7.40;4.20;;;;;;;;;;5067604;28;20032;-78
2022/08/16 05:28:10;;;;;;;8.05;3.85;;;;;;;;;;5071960;28;20414;-78
2022/08/16 05:30:37;;;;;;;6.63;3.80;;;;;;;;;;5065941;28;20069;-78
2022/08/16 05:33:03;;;;;;;5.07;3.30;;;;;;;;;;5064134;28;20036;-78
2022/08/16 05:35:29;;;;;;;8.10;3.38;;;;;;;;;;5068938;28;20036;-78
2022/08/16 05:37:56;;;;;;;6.65;3.50;;;;;;;;;;5065466;28;20036;-78
2022/08/16 05:40:22;;;;;;;6.03;3.67;;;;;;;;;;5069249;28;20028;-78
2022/08/16 05:42:48;;;;;;;6.45;3.58;;;;;;;;;;5061120;28;20044;-78
2022/08/16 05:45:14;;;;;;;7.82;3.60;;;;;;;;;;5068726;28;20575;-78
2022/08/16 05:47:40;;;;;;;6.90;3.78;;;;;;;;;;5058568;28;20071;-78
2022/08/16 05:50:07;;;;;;;8.50;3.40;;;;;;;;;;5060597;28;20040;-78
2022/08/16 05:52:33;;;;;;;6.45;3.53;;;;;;;;;;5061660;28;20421;-78
2022/08/16 05:54:59;;;;;;;7.57;3.55;;;;;;;;;;5064346;28;20028;-78
2022/08/16 05:57:25;;;;;;;8.02;3.85;;;;;;;;;;5066094;28;20036;-78
2022/08/16 05:59:52;;;;;;;7.78;3.45;;;;;;;;;;5058301;28;20037;-78
2022/08/16 06:02:18;;;;;;;7.40;3.05;;;;;;;;;;5064027;28;20431;-78
2022/08/16 06:04:44;;;;;;;7.88;3.50;;;;;;;;;;5064684;28;20119;-78
2022/08/16 06:07:10;;;;;;;6.93;3.55;;;;;;;;;;5069018;28;20060;-78
2022/08/16 06:09:37;;;;;;;8.02;3.45;;;;;;;;;;5066856;28;20040;-78
2022/08/16 06:12:03;;;;;;;6.25;3.08;;;;;;;;;;5068753;28;20374;-78
2022/08/16 06:14:30;;;;;;;6.65;3.72;;;;;;;;;;5067039;28;20036;-77
2022/08/16 06:16:56;;;;;;;7.93;3.20;;;;;;;;;;5068563;28;20487;-78
2022/08/16 06:19:22;;;;;;;7.47;3.72;;;;;;;;;;5059064;28;20122;-78
2022/08/16 06:21:48;;;;;;;6.88;3.33;;;;;;;;;;5064940;28;20025;-78
2022/08/16 06:24:14;;;;;;;7.90;3.58;;;;;;;;;;5063216;28;20032;-78
2022/08/16 06:26:40;;;;;;;9.57;3.85;;;;;;;;;;5055010;28;20271;-78
2022/08/16 06:29:07;;;;;;;6.40;3.20;;;;;;;;;;5063328;28;20033;-78
2022/08/16 06:31:33;;;;;;;6.70;3.10;;;;;;;;;;5061325;28;20047;-78
2022/08/16 06:33:59;;;;;;;7.65;3.53;;;;;;;;;;5046250;28;20375;-78
2022/08/16 06:36:25;;;;;;;8.15;3.50;;;;;;;;;;5061343;28;20045;-78
2022/08/16 06:38:51;;;;;;;6.88;3.40;;;;;;;;;;5061112;28;20045;-79
2022/08/16 06:41:17;;;;;;;7.55;3.42;;;;;;;;;;5062822;28;20037;-78
2022/08/16 06:43:43;;;;;;;5.90;3.15;;;;;;;;;;5065275;28;20121;-78
2022/08/16 06:46:21;;;;;;;9.80;3.72;;;;;;;;;;5064651;28;20056;-78
2022/08/16 06:48:47;;;;;;;5.47;3.03;;;;;;;;;;5063623;28;20202;-78
2022/08/16 06:51:13;;;;;;;6.80;3.13;;;;;;;;;;5067001;28;20508;-78
2022/08/16 06:53:39;;;;;;;5.53;2.92;;;;;;;;;;5069295;28;20538;-78
2022/08/16 06:56:07;;;;;;;7.28;3.22;;;;;;;;;;5063607;28;20082;-78
2022/08/16 06:58:33;;;;;;;5.40;3.08;;;;;;;;;;5061131;28;20043;-78
2022/08/16 07:01:02;;;;;;;9.27;3.67;;;;;;;;;;5061531;28;20029;-78
2022/08/16 07:03:29;;;;;;;8.30;2.95;;;;;;;;;;5068376;28;20029;-78
2022/08/16 07:05:56;;;;;;;7.57;3.15;;;;;;;;;;5062297;28;20035;-79
2022/08/16 07:08:22;;;;;;;6.65;3.10;;;;;;;;;;5062623;28;20041;-78
2022/08/16 07:10:49;;;;;;;7.57;3.40;;;;;;;;;;5066880;28;20386;-78
2022/08/16 07:13:15;;;;;;;6.40;3.17;;;;;;;;;;5066639;28;20067;-78
2022/08/16 07:15:41;;;;;;;9.68;3.22;;;;;;;;;;5056064;28;20084;-78
2022/08/16 07:18:09;;;;;;;8.27;3.30;;;;;;;;;;5078280;28;20024;-78
2022/08/16 07:20:36;;;;;;;6.32;2.90;;;;;;;;;;5066654;28;20060;-79
2022/08/16 07:23:03;;;;;;;6.45;2.60;;;;;;;;;;5067077;28;20087;-79
2022/08/16 07:25:29;;;;;;;5.65;3.05;;;;;;;;;;5059493;28;20041;-78
2022/08/16 07:27:55;;;;;;;7.45;3.08;;;;;;;;;;5064303;28;20028;-78
2022/08/16 07:30:21;;;;;;;5.68;3.00;;;;;;;;;;5066061;28;20048;-78
2022/08/16 07:32:49;;;;;;;7.05;2.85;;;;;;;;;;5070065;28;20036;-78
2022/08/16 07:35:15;;;;;;;5.38;3.08;;;;;;;;;;5055704;28;20032;-78
2022/08/16 07:37:41;;;;;;;5.90;3.15;;;;;;;;;;5067410;28;20071;-78
2022/08/16 07:40:08;;;;;;;6.38;3.13;;;;;;;;;;5060921;28;20033;-78
2022/08/16 07:42:34;;;;;;;4.43;2.58;;;;;;;;;;5068083;28;20032;-78
2022/08/16 07:45:00;;;;;;;6.75;3.13;;;;;;;;;;5056688;28;20037;-78
2022/08/16 07:47:26;;;;;;;7.55;2.97;;;;;;;;;;5060924;28;20028;-78
2022/08/16 07:49:53;;;;;;;6.57;2.97;;;;;;;;;;5062994;28;20044;-78
2022/08/16 07:52:19;;;;;;;7.65;3.15;;;;;;;;;;5066147;28;20420;-78
2022/08/16 07:54:45;;;;;;;5.28;3.22;;;;;;;;;;5064614;28;21130;-78
2022/08/16 07:57:11;;;;;;;6.40;2.97;;;;;;;;;;5068337;28;20116;-78
2022/08/16 07:59:37;;;;;;;4.80;2.50;;;;;;;;;;5061714;28;20667;-78
2022/08/16 08:02:04;;;;;;;6.72;3.05;;;;;;;;;;5063997;28;20025;-78
2022/08/16 08:04:31;;;;;;;6.85;2.83;;;;;;;;;;5063959;28;20036;-78
2022/08/16 08:06:58;;;;;;;8.23;2.80;;;;;;;;;;5054221;28;20028;-79
2022/08/16 08:09:24;;;;;;;8.65;3.08;;;;;;;;;;5066447;28;20032;-79
2022/08/16 08:11:50;;;;;;;4.25;2.47;;;;;;;;;;5062559;28;20572;-79
2022/08/16 08:14:16;;;;;;;4.78;2.25;;;;;;;;;;5061374;28;20493;-78
2022/08/16 08:16:42;;;;;;;4.55;2.60;;;;;;;;;;5066834;28;20113;-79
2022/08/16 08:19:11;;;;;;;5.65;3.35;;;;;;;;;;5054869;28;20177;-79
2022/08/16 08:21:37;;;;;;;6.43;2.75;;;;;;;;;;5067576;28;20043;-78
2022/08/16 08:24:04;;;;;;;7.20;2.85;;;;;;;;;;5062699;28;20032;-78
2022/08/16 08:26:30;;;;;;;4.30;2.70;;;;;;;;;;5059601;28;20363;-78
2022/08/16 08:28:56;;;;;;;5.70;3.00;;;;;;;;;;5059036;28;20041;-78
2022/08/16 08:31:22;;;;;;;8.05;3.20;;;;;;;;;;5058150;28;20036;-78
2022/08/16 08:33:48;;;;;;;5.07;3.08;;;;;;;;;;5064005;28;20044;-79
2022/08/16 08:36:16;;;;;;;6.10;2.67;;;;;;;;;;5058618;28;20112;-79
2022/08/16 08:38:42;;;;;;;9.77;3.03;;;;;;;;;;5067506;28;20041;-78
2022/08/16 08:41:08;;;;;;;7.72;2.90;;;;;;;;;;5062452;28;20048;-78
2022/08/16 08:43:34;;;;;;;6.85;2.70;;;;;;;;;;5065619;28;20033;-79
2022/08/16 08:46:01;;;;;;;4.38;2.70;;;;;;;;;;5068428;28;20024;-79
2022/08/16 08:48:27;;;;;;;7.25;3.30;;;;;;;;;;5066979;28;20025;-78
2022/08/16 08:50:54;;;;;;;7.43;2.97;;;;;;;;;;5055463;28;20049;-79
2022/08/16 08:53:20;;;;;;;6.22;2.55;;;;;;;;;;5061178;28;20040;-79
2022/08/16 08:55:48;;;;;;;5.10;2.60;;;;;;;;;;5070352;28;20437;-79
2022/08/16 08:58:15;;;;;;;6.57;2.78;;;;;;;;;;5053945;28;20481;-78
2022/08/16 09:00:41;;;;;;;7.22;2.83;;;;;;;;;;5061083;28;20052;-78
2022/08/16 09:03:07;;;;;;;7.38;2.70;;;;;;;;;;5060118;28;20059;-78
2022/08/16 09:05:33;;;;;;;5.55;2.60;;;;;;;;;;5057239;28;20033;-78
2022/08/16 09:08:00;;;;;;;4.72;2.70;;;;;;;;;;5061821;28;20024;-79
2022/08/16 09:10:26;;;;;;;9.48;2.80;;;;;;;;;;5061491;28;20064;-79
2022/08/16 09:12:52;;;;;;;7.00;3.05;;;;;;;;;;5065053;28;20068;-78
2022/08/16 09:15:19;;;;;;;6.43;3.30;;;;;;;;;;5064509;28;20033;-79
2022/08/16 09:17:45;;;;;;;4.47;2.63;;;;;;;;;;5068877;28;20107;-78
2022/08/16 09:20:13;;;;;;;4.90;2.78;;;;;;;;;;5063963;28;20080;-78
2022/08/16 09:22:39;;;;;;;6.43;2.58;;;;;;;;;;5060302;28;20044;-78
2022/08/16 09:25:05;;;;;;;10.13;3.30;;;;;;;;;;5069348;28;20115;-78
2022/08/16 09:27:31;;;;;;;7.38;2.90;;;;;;;;;;5067783;28;20493;-79
2022/08/16 09:29:57;;;;;;;5.70;2.97;;;;;;;;;;5069569;28;20060;-78
2022/08/16 09:32:23;;;;;;;7.15;2.70;;;;;;;;;;5064385;28;20517;-78
2022/08/16 09:34:49;;;;;;;4.95;2.55;;;;;;;;;;5061496;28;20033;-78
2022/08/16 09:37:15;;;;;;;4.50;2.55;;;;;;;;;;5065478;28;20084;-78
2022/08/16 09:39:43;;;;;;;9.13;3.05;;;;;;;;;;5063021;28;20036;-78
2022/08/16 09:42:10;;;;;;;8.32;2.60;;;;;;;;;;5062937;28;20036;-78
2022/08/16 09:44:36;;;;;;;5.15;2.38;;;;;;;;;;5067226;28;20024;-78
2022/08/16 09:47:02;;;;;;;7.00;3.40;;;;;;;;;;5055924;28;20079;-78
2022/08/16 09:49:29;;;;;;;5.72;2.65;;;;;;;;;;5066414;28;20044;-77
2022/08/16 09:51:55;;;;;;;5.50;2.70;;;;;;;;;;5057687;28;20025;-78
2022/08/16 09:54:22;;;;;;;5.35;2.85;;;;;;;;;;5058233;28;20528;-78
2022/08/16 09:56:48;;;;;;;5.35;2.78;;;;;;;;;;5065858;28;20017;-78
2022/08/16 09:59:15;;;;;;;7.35;3.13;;;;;;;;;;5061484;28;20136;-78
2022/08/16 10:01:43;;;;;;;7.40;3.13;;;;;;;;;;5065383;28;20033;-78
2022/08/16 10:04:09;;;;;;;6.60;2.58;;;;;;;;;;5074034;28;20039;-78
2022/08/16 10:06:36;;;;;;;5.28;2.90;;;;;;;;;;5075241;28;20085;-78
2022/08/16 10:09:03;;;;;;;4.90;2.50;;;;;;;;;;5075514;28;20036;-78
2022/08/16 10:14:14;;;;;;;6.93;2.97;;;;;;;;;;5070569;28;20167;-78
2022/08/16 10:16:40;;;;;;;7.07;2.53;;;;;;;;;;5069104;28;20123;-78
2022/08/16 10:19:06;;;;;;;6.55;2.78;;;;;;;;;;5078265;28;20028;-79
2022/08/16 10:21:32;;;;;;;8.90;2.92;;;;;;;;;;5071148;28;20117;-78
2022/08/16 10:23:58;;;;;;;14.98;3.20;;;;;;;;;;5073499;28;20037;-78
2022/08/16 10:26:24;;;;;;;10.68;3.38;;;;;;;;;;5065758;28;20543;-78
2022/08/16 10:28:50;;;;;;;6.15;2.40;;;;;;;;;;5067067;28;20040;-78
2022/08/16 10:31:17;;;;;;;5.63;2.33;;;;;;;;;;5067778;28;20035;-78
2022/08/16 10:33:43;;;;;;;5.72;2.63;;;;;;;;;;5072150;28;20033;-78
2022/08/16 10:36:12;;;;;;;5.05;2.83;;;;;;;;;;5070797;28;20115;-78
2022/08/16 10:38:38;;;;;;;5.68;2.92;;;;;;;;;;5067011;28;20574;-78
2022/08/16 10:41:05;;;;;;;7.95;2.60;;;;;;;;;;5063937;28;20112;-78
2022/08/16 10:43:31;;;;;;;3.78;2.08;;;;;;;;;;5059153;28;20024;-78
2022/08/16 10:45:57;;;;;;;4.13;2.13;;;;;;;;;;5065995;28;20025;-78
2022/08/16 10:48:23;;;;;;;4.68;2.10;;;;;;;;;;5067557;28;20369;-78
2022/08/16 10:50:50;;;;;;;4.22;2.30;;;;;;;;;;5074346;28;20031;-78
2022/08/16 10:53:16;;;;;;;5.03;1.80;;;;;;;;;;5069567;28;20535;-78
2022/08/16 10:55:43;;;;;;;6.80;2.00;;;;;;;;;;5072644;28;20036;-79
2022/08/16 10:58:11;;;;;;;4.88;2.33;;;;;;;;;;5062799;28;20461;-78
2022/08/16 11:00:39;;;;;;;5.47;2.45;;;;;;;;;;5080938;28;20103;-78
2022/08/16 11:03:05;;;;;;;4.32;2.15;;;;;;;;;;5070048;28;20061;-79
2022/08/16 11:05:32;;;;;;;4.93;2.15;;;;;;;;;;5068662;28;20039;-78
2022/08/16 11:07:59;;;;;;;5.07;2.20;;;;;;;;;;5069516;28;20073;-78
2022/08/16 11:10:26;;;;;;;4.25;2.00;;;;;;;;;;5067518;28;20028;-78
2022/08/16 11:12:52;;;;;;;7.72;2.25;;;;;;;;;;5077676;28;20032;-78
2022/08/16 11:15:19;;;;;;;8.55;2.67;;;;;;;;;;5059887;28;20032;-78
2022/08/16 11:17:46;;;;;;;4.10;1.92;;;;;;;;;;5064238;28;20032;-78
2022/08/16 11:20:16;;;;;;;6.43;1.83;;;;;;;;;;5058395;28;20512;-79
2022/08/16 11:22:42;;;;;;;5.88;2.25;;;;;;;;;;5061382;28;20043;-78
2022/08/16 11:25:08;;;;;;;5.25;2.20;;;;;;;;;;5064558;28;20031;-79
2022/08/16 11:27:34;;;;;;;7.35;2.05;;;;;;;;;;5062587;28;20072;-79
2022/08/16 11:30:00;;;;;;;4.75;2.20;;;;;;;;;;5060555;28;20431;-78
2022/08/16 11:32:29;;;;;;;5.95;2.15;;;;;;;;;;5062475;28;20116;-78
2022/08/16 11:34:55;;;;;;;5.82;2.53;;;;;;;;;;5061416;28;20063;-78
2022/08/16 11:37:21;;;;;;;6.90;2.30;;;;;;;;;;5060865;28;20573;-78
2022/08/16 11:39:47;;;;;;;5.75;2.63;;;;;;;;;;5062623;28;20443;-78
2022/08/16 11:42:14;;;;;;;4.30;2.40;;;;;;;;;;5077493;28;20101;-78
2022/08/16 11:44:40;;;;;;;7.45;2.28;;;;;;;;;;5068343;28;20033;-78
2022/08/16 11:47:06;;;;;;;5.85;2.53;;;;;;;;;;5063950;28;20032;-78
2022/08/16 11:49:32;;;;;;;5.35;2.30;;;;;;;;;;5066931;28;20124;-78
2022/08/16 11:51:58;;;;;;;6.97;2.10;;;;;;;;;;5061858;28;20481;-78
2022/08/16 11:54:24;;;;;;;4.68;2.03;;;;;;;;;;5059429;28;20031;-78
2022/08/16 11:56:51;;;;;;;6.35;2.40;;;;;;;;;;5061383;28;20032;-78
2022/08/16 11:59:18;;;;;;;5.30;2.10;;;;;;;;;;5064924;28;20031;-78
2022/08/16 12:01:44;;;;;;;4.40;1.95;;;;;;;;;;5062299;28;20029;-76
2022/08/16 12:04:10;;;;;;;4.38;2.00;;;;;;;;;;5058575;28;20108;-76
2022/08/16 12:06:37;;;;;;;3.97;2.08;;;;;;;;;;5063040;28;20039;-76
2022/08/16 12:09:04;;;;;;;5.55;2.17;;;;;;;;;;5062320;28;20032;-76
2022/08/16 12:11:30;;;;;;;3.88;1.67;;;;;;;;;;5059032;28;20424;-77
2022/08/16 12:13:56;;;;;;;4.75;1.90;;;;;;;;;;5059820;28;20686;-76
2022/08/16 12:16:23;;;;;;;4.60;2.03;;;;;;;;;;5058431;28;20037;-77
2022/08/16 12:18:49;;;;;;;3.60;1.75;;;;;;;;;;5059575;28;20025;-76
2022/08/16 12:21:15;;;;;;;10.32;2.10;;;;;;;;;;5061969;28;20059;-76
2022/08/16 12:23:42;;;;;;;8.40;2.33;;;;;;;;;;5056314;28;20074;-76
2022/08/16 12:26:08;;;;;;;5.82;1.65;;;;;;;;;;5064560;28;20036;-76
2022/08/16 12:28:34;;;;;;;4.57;1.95;;;;;;;;;;5057804;28;20036;-76
2022/08/16 12:31:00;;;;;;;5.93;2.15;;;;;;;;;;5060049;28;20071;-76
2022/08/16 12:33:26;;;;;;;4.28;1.90;;;;;;;;;;5057079;28;20064;-76
2022/08/16 12:35:52;;;;;;;6.88;1.92;;;;;;;;;;5060308;28;20083;-76
2022/08/16 12:38:18;;;;;;;4.18;1.48;;;;;;;;;;5063781;28;20039;-77
2022/08/16 12:40:47;;;;;;;5.63;1.67;;;;;;;;;;5060935;28;20452;-76
2022/08/16 12:43:14;;;;;;;4.97;2.05;;;;;;;;;;5059891;28;20044;-76
2022/08/16 12:45:42;;;;;;;5.57;1.70;;;;;;;;;;5065978;28;20371;-76
2022/08/16 12:49:10;;;;;;;4.55;1.58;;;;;;;;;;5062157;28;20024;-76
2022/08/16 12:51:05;;;;;;;5.85;2.00;;;;;;;;;;5041218;28;20044;-76
2022/08/16 12:53:34;;;;;;;4.53;1.90;;;;;;;;;;5065519;28;20037;-76
2022/08/16 12:56:01;;;;;;;5.97;1.77;;;;;;;;;;5061612;28;20033;-76
2022/08/16 12:58:27;;;;;;;4.72;2.22;;;;;;;;;;5068783;28;20043;-76
2022/08/16 13:00:53;;;;;;;5.22;1.95;;;;;;;;;;5062389;28;20055;-76
2022/08/16 13:03:20;;;;;;;4.47;1.83;;;;;;;;;;5066958;28;20724;-76
2022/08/16 13:05:49;;;;;;;9.50;2.38;;;;;;;;;;5061777;28;20116;-77
2022/08/16 13:08:17;;;;;;;9.98;2.33;;;;;;;;;;5059114;28;20032;-76
2022/08/16 13:10:46;;;;;;;9.38;2.42;;;;;;;;;;5065934;28;20660;-76
2022/08/16 13:13:15;;;;;;;12.88;3.03;;;;;;;;;;5065380;28;20032;-76
2022/08/16 13:15:41;;;;;;;6.45;1.83;;;;;;;;;;5064549;28;20308;-76
2022/08/16 13:18:07;;;;;;;5.35;1.73;;;;;;;;;;5073289;28;20452;-76
2022/08/16 13:20:34;;;;;;;8.18;2.45;;;;;;;;;;5065172;28;20106;-76
2022/08/16 13:23:05;;;;;;;9.75;2.20;;;;;;;;;;5063045;28;20424;-76
2022/08/16 13:25:32;;;;;;;8.30;1.80;;;;;;;;;;5061952;28;20060;-76
2022/08/16 13:27:58;;;;;;;4.07;2.03;;;;;;;;;;5064037;28;20028;-76
2022/08/16 13:30:25;;;;;;;9.98;2.47;;;;;;;;;;5066168;28;20028;-77
2022/08/16 13:32:52;;;;;;;5.93;2.13;;;;;;;;;;5068537;28;20036;-76
2022/08/16 13:35:18;;;;;;;7.10;2.30;;;;;;;;;;5064972;28;20033;-76
2022/08/16 13:37:44;;;;;;;8.82;1.80;;;;;;;;;;5066150;28;20508;-76
2022/08/16 13:40:10;;;;;;;8.40;2.30;;;;;;;;;;5063181;28;20086;-77
2022/08/16 13:42:39;;;;;;;16.08;2.60;;;;;;;;;;5061548;28;20501;-76
2022/08/16 13:45:06;;;;;;;10.23;2.30;;;;;;;;;;5063746;28;20040;-76
2022/08/16 13:47:32;;;;;;;13.70;2.53;;;;;;;;;;5064787;28;20041;-76
2022/08/16 13:49:58;;;;;;;5.05;1.85;;;;;;;;;;5056659;28;20121;-77
2022/08/16 13:52:24;;;;;;;5.15;1.70;;;;;;;;;;5061620;28;20029;-76
2022/08/16 13:54:50;;;;;;;4.70;1.83;;;;;;;;;;5064188;28;20102;-78
2022/08/16 13:57:16;;;;;;;4.47;2.00;;;;;;;;;;5067066;28;20033;-78
2022/08/16 13:59:42;;;;;;;3.47;1.58;;;;;;;;;;5066915;28;20048;-79
2022/08/16 14:02:10;;;;;;;5.28;1.90;;;;;;;;;;5061823;28;20504;-78
2022/08/16 14:04:37;;;;;;;5.35;2.05;;;;;;;;;;5060331;28;20029;-79
2022/08/16 14:07:05;;;;;;;9.13;2.45;;;;;;;;;;5061778;28;20033;-79
2022/08/16 14:09:31;;;;;;;6.07;1.92;;;;;;;;;;5055332;28;20048;-79
2022/08/16 14:11:59;;;;;;;7.45;2.15;;;;;;;;;;5065513;28;20032;-79
2022/08/16 14:14:25;;;;;;;5.15;2.00;;;;;;;;;;5062271;28;20028;-79
2022/08/16 14:16:51;;;;;;;6.10;2.05;;;;;;;;;;5064216;28;20033;-79
2022/08/16 14:19:18;;;;;;;4.07;1.98;;;;;;;;;;5055856;28;20613;-79
2022/08/16 14:21:49;;;;;;;4.20;1.83;;;;;;;;;;5061718;28;20071;-78
2022/08/16 14:24:15;;;;;;;4.25;1.67;;;;;;;;;;5066412;28;20036;-79
2022/08/16 14:26:42;;;;;;;3.90;1.77;;;;;;;;;;5062592;28;20075;-78
2022/08/16 14:29:08;;;;;;;4.72;1.90;;;;;;;;;;5067203;28;20036;-77
2022/08/16 14:31:35;;;;;;;4.47;1.70;;;;;;;;;;5065970;28;20029;-77
2022/08/16 14:34:03;;;;;;;5.70;1.88;;;;;;;;;;5066460;28;20041;-76
2022/08/16 14:36:29;;;;;;;5.15;1.85;;;;;;;;;;5062900;28;20481;-77
2022/08/16 14:38:55;;;;;;;5.45;1.73;;;;;;;;;;5065674;28;20119;-77
2022/08/16 14:41:21;;;;;;;6.05;2.15;;;;;;;;;;5062159;28;20104;-76